Time;durP1;ratioP1;P1;durP2;ratioP2;P2;SDS_P1;SDS_P2;PMS_P1;PMS_P2;Temp;Humidity;BMP_temperature;BMP_pressure;BME280_temperature;BME280_humidity;BME280_pressure;Samples;Min_cycle;Max_cycle;Signal;HPM_P1;HPM_P2
2022/03/26 00:00:31;;;;;;;;;;;5.00;73.20;;;;;;5102483;28;20563;-79
2022/03/26 00:02:56;;;;;;;;;;;4.90;73.60;;;;;;5105168;28;20651;-79
2022/03/26 00:05:22;;;;;;;;;;;4.90;74.10;;;;;;5089906;28;19916;-79
2022/03/26 00:07:48;;;;;;;;;;;4.90;74.70;;;;;;5109220;28;19908;-80
2022/03/26 00:10:14;;;;;;;;;;;4.80;75.10;;;;;;5107263;28;19907;-79
2022/03/26 00:12:40;;;;;;;;;;;4.80;75.10;;;;;;5108515;28;20469;-79
2022/03/26 00:15:06;;;;;;;;;;;4.80;75.30;;;;;;5113725;28;20391;-80
2022/03/26 00:17:32;;;;;;;;;;;4.80;75.50;;;;;;5107792;28;19916;-79
2022/03/26 00:19:58;;;;;;;;;;;4.80;75.70;;;;;;5113355;28;20406;-80
2022/03/26 00:22:23;;;;;;;;;;;4.70;76.00;;;;;;5111635;28;20402;-80
2022/03/26 00:24:50;;;;;;;;;;;4.70;76.30;;;;;;5105253;28;20318;-79
2022/03/26 00:27:16;;;;;;;;;;;4.60;76.30;;;;;;5107348;28;19912;-79
2022/03/26 00:29:42;;;;;;;;;;;4.60;76.80;;;;;;5105315;28;19980;-79
2022/03/26 00:32:08;;;;;;;;;;;4.50;77.20;;;;;;5103864;28;20422;-79
2022/03/26 00:34:33;;;;;;;;;;;4.50;77.00;;;;;;5105946;28;19922;-80
2022/03/26 00:36:59;;;;;;;;;;;4.50;77.30;;;;;;5105315;28;20251;-79
2022/03/26 00:39:25;;;;;;;;;;;4.40;77.50;;;;;;5105160;28;19919;-79
2022/03/26 00:41:51;;;;;;;;;;;4.40;78.20;;;;;;5104977;28;20371;-80
2022/03/26 00:44:17;;;;;;;;;;;4.40;78.00;;;;;;5103165;28;19947;-79
2022/03/26 00:46:45;;;;;;;;;;;4.50;77.90;;;;;;5103708;28;19939;-80
2022/03/26 00:49:11;;;;;;;;;;;4.40;77.80;;;;;;5104979;28;19976;-80
2022/03/26 00:51:37;;;;;;;;;;;4.40;78.10;;;;;;5103948;28;19970;-79
2022/03/26 00:54:02;;;;;;;;;;;4.40;78.00;;;;;;5106013;28;19943;-79
2022/03/26 00:56:28;;;;;;;;;;;4.30;78.40;;;;;;5105205;28;20103;-79
2022/03/26 00:58:54;;;;;;;;;;;4.30;78.50;;;;;;5106851;28;19999;-79
2022/03/26 01:01:19;;;;;;;;;;;4.30;79.00;;;;;;5105789;28;19920;-79
2022/03/26 01:03:45;;;;;;;;;;;4.30;79.00;;;;;;5106702;28;19960;-78
2022/03/26 01:06:11;;;;;;;;;;;4.10;79.50;;;;;;5105982;28;20294;-79
2022/03/26 01:08:36;;;;;;;;;;;4.20;79.10;;;;;;5103801;28;20593;-79
2022/03/26 01:11:02;;;;;;;;;;;4.20;79.50;;;;;;5107235;28;19981;-79
2022/03/26 01:13:30;;;;;;;;;;;4.20;79.60;;;;;;5105525;28;20049;-80
2022/03/26 01:15:55;;;;;;;;;;;4.10;79.70;;;;;;5107219;28;20129;-79
2022/03/26 01:18:22;;;;;;;;;;;4.10;80.50;;;;;;5105407;28;19938;-80
2022/03/26 01:20:48;;;;;;;;;;;4.10;80.00;;;;;;5088201;28;19907;-79
2022/03/26 01:23:14;;;;;;;;;;;4.10;80.50;;;;;;5103842;28;20295;-79
2022/03/26 01:25:39;;;;;;;;;;;4.10;80.50;;;;;;5105763;28;19924;-79
2022/03/26 01:28:05;;;;;;;;;;;4.10;80.30;;;;;;5106544;28;19908;-80
2022/03/26 01:30:30;;;;;;;;;;;4.00;80.30;;;;;;5106538;28;19907;-79
2022/03/26 01:32:56;;;;;;;;;;;4.00;81.10;;;;;;5108650;28;20003;-79
2022/03/26 01:35:22;;;;;;;;;;;3.90;80.90;;;;;;5113247;28;20347;-79
2022/03/26 01:37:47;;;;;;;;;;;3.80;81.20;;;;;;5113090;28;20437;-79
2022/03/26 01:40:13;;;;;;;;;;;3.70;81.80;;;;;;5110164;28;19908;-79
2022/03/26 01:42:38;;;;;;;;;;;3.70;82.30;;;;;;5087553;28;20409;-79
2022/03/26 01:45:04;;;;;;;;;;;3.70;82.30;;;;;;5103818;28;19923;-79
2022/03/26 01:47:30;;;;;;;;;;;3.60;82.40;;;;;;5103511;28;19914;-80
2022/03/26 01:49:56;;;;;;;;;;;3.60;82.60;;;;;;5104122;28;19957;-79
2022/03/26 01:52:23;;;;;;;;;;;3.50;82.80;;;;;;5103338;28;20349;-79
2022/03/26 01:54:49;;;;;;;;;;;3.50;82.90;;;;;;5103268;28;19908;-80
2022/03/26 01:57:14;;;;;;;;;;;3.50;83.30;;;;;;5104006;28;19963;-80
2022/03/26 01:59:41;;;;;;;;;;;3.90;83.60;;;;;;5101574;28;19980;-80
2022/03/26 02:02:06;;;;;;;;;;;3.40;83.30;;;;;;5104029;28;19970;-79
2022/03/26 02:04:34;;;;;;;;;;;3.50;83.90;;;;;;5102885;28;19956;-80
2022/03/26 02:07:01;;;;;;;;;;;3.50;83.30;;;;;;5103027;28;20482;-79
2022/03/26 02:09:33;;;;;;;;;;;3.50;83.40;;;;;;5104712;28;19947;-79
2022/03/26 02:11:59;;;;;;;;;;;3.40;83.30;;;;;;5104151;28;19961;-79
2022/03/26 02:14:25;;;;;;;;;;;3.40;83.50;;;;;;5104900;28;20332;-80
2022/03/26 02:16:50;;;;;;;;;;;3.40;83.40;;;;;;5100618;28;20327;-79
2022/03/26 02:19:16;;;;;;;;;;;3.40;83.80;;;;;;5106926;28;19912;-79
2022/03/26 02:21:42;;;;;;;;;;;3.40;84.00;;;;;;5105098;28;19918;-79
2022/03/26 02:24:08;;;;;;;;;;;3.40;83.90;;;;;;5106657;28;19916;-80
2022/03/26 02:26:34;;;;;;;;;;;3.30;84.00;;;;;;5109593;28;19907;-79
2022/03/26 02:29:04;;;;;;;;;;;3.30;84.10;;;;;;5110961;28;19908;-80
2022/03/26 02:31:29;;;;;;;;;;;3.30;84.30;;;;;;5109844;28;19979;-79
2022/03/26 02:33:55;;;;;;;;;;;3.20;84.50;;;;;;5109932;28;19958;-79
2022/03/26 02:36:21;;;;;;;;;;;3.20;84.90;;;;;;5105582;28;19955;-79
2022/03/26 02:38:46;;;;;;;;;;;0.60;83.40;;;;;;5105401;28;19930;-79
2022/03/26 02:41:12;;;;;;;;;;;5.30;86.00;;;;;;5104074;28;20158;-79
2022/03/26 02:43:38;;;;;;;;;;;3.10;84.90;;;;;;5103595;28;19930;-80
2022/03/26 02:46:03;;;;;;;;;;;3.10;85.20;;;;;;5103343;28;20266;-79
2022/03/26 02:48:29;;;;;;;;;;;3.10;85.30;;;;;;5105298;28;19908;-79
2022/03/26 02:50:55;;;;;;;;;;;3.10;85.70;;;;;;5102892;28;20195;-79
2022/03/26 02:53:21;;;;;;;;;;;3.10;85.60;;;;;;5101006;28;20407;-79
2022/03/26 02:55:47;;;;;;;;;;;3.10;85.50;;;;;;5100714;28;19908;-79
2022/03/26 02:58:12;;;;;;;;;;;3.00;85.30;;;;;;5099379;28;20207;-79
2022/03/26 03:00:38;;;;;;;;;;;3.00;85.50;;;;;;5101239;28;19920;-79
2022/03/26 03:03:04;;;;;;;;;;;2.90;85.60;;;;;;5101656;28;19922;-79
2022/03/26 03:05:30;;;;;;;;;;;2.90;85.80;;;;;;5101077;28;19919;-79
2022/03/26 03:07:56;;;;;;;;;;;2.90;86.20;;;;;;5083484;28;19912;-79
2022/03/26 03:10:22;;;;;;;;;;;2.90;86.20;;;;;;5101159;28;20108;-78
2022/03/26 03:12:48;;;;;;;;;;;3.00;85.80;;;;;;5100760;28;19971;-78
2022/03/26 03:15:16;;;;;;;;;;;3.00;85.50;;;;;;5097934;28;19908;-80
2022/03/26 03:17:42;;;;;;;;;;;3.00;85.50;;;;;;5106131;28;19907;-79
2022/03/26 03:20:09;;;;;;;;;;;3.00;86.30;;;;;;5107983;28;19919;-79
2022/03/26 03:22:35;;;;;;;;;;;2.90;86.00;;;;;;5109072;28;19964;-80
2022/03/26 03:25:00;;;;;;;;;;;2.80;86.10;;;;;;5105172;28;20393;-79
2022/03/26 03:27:26;;;;;;;;;;;2.70;86.70;;;;;;5103201;28;19959;-79
2022/03/26 03:29:52;;;;;;;;;;;2.70;87.00;;;;;;5103040;28;19968;-79
2022/03/26 03:32:17;;;;;;;;;;;2.70;87.10;;;;;;5102333;28;19951;-80
2022/03/26 03:34:43;;;;;;;;;;;2.70;87.40;;;;;;5101784;28;20386;-80
2022/03/26 03:37:09;;;;;;;;;;;2.70;87.40;;;;;;5102338;28;19918;-79
2022/03/26 03:39:34;;;;;;;;;;;2.70;87.30;;;;;;5106459;28;20302;-79
2022/03/26 03:42:00;;;;;;;;;;;2.60;87.40;;;;;;5106284;28;19908;-80
2022/03/26 03:44:26;;;;;;;;;;;2.60;87.60;;;;;;5110116;28;19923;-80
2022/03/26 03:46:52;;;;;;;;;;;2.60;87.60;;;;;;5107920;28;20103;-80
2022/03/26 03:49:18;;;;;;;;;;;2.00;87.20;;;;;;5104053;28;19915;-80
2022/03/26 03:51:44;;;;;;;;;;;2.60;87.70;;;;;;5105384;28;20393;-79
2022/03/26 03:54:10;;;;;;;;;;;2.50;87.60;;;;;;5105922;28;20109;-79
2022/03/26 03:56:35;;;;;;;;;;;2.50;88.20;;;;;;5104765;28;20103;-79
2022/03/26 03:59:01;;;;;;;;;;;2.50;87.80;;;;;;5105103;28;19931;-80
2022/03/26 04:01:26;;;;;;;;;;;2.50;88.10;;;;;;5104635;28;19919;-80
2022/03/26 04:03:52;;;;;;;;;;;2.50;88.10;;;;;;5104196;28;19923;-80
2022/03/26 04:06:18;;;;;;;;;;;2.50;88.20;;;;;;5104621;28;19911;-79
2022/03/26 04:08:43;;;;;;;;;;;2.50;88.20;;;;;;5105790;28;19908;-79
2022/03/26 04:11:09;;;;;;;;;;;2.50;87.90;;;;;;5104211;28;19962;-79
2022/03/26 04:13:35;;;;;;;;;;;2.60;87.90;;;;;;5105606;28;19908;-79
2022/03/26 04:16:00;;;;;;;;;;;2.60;88.00;;;;;;5105510;28;20011;-79
2022/03/26 04:18:26;;;;;;;;;;;2.50;87.80;;;;;;5105405;28;19911;-79
2022/03/26 04:20:53;;;;;;;;;;;2.50;88.00;;;;;;5109256;28;20145;-79
2022/03/26 04:23:19;;;;;;;;;;;2.50;88.40;;;;;;5108731;28;19908;-80
2022/03/26 04:25:44;;;;;;;;;;;2.40;88.50;;;;;;5108947;28;19919;-79
2022/03/26 04:28:10;;;;;;;;;;;2.40;88.90;;;;;;5107331;28;19969;-79
2022/03/26 04:30:35;;;;;;;;;;;2.30;88.80;;;;;;5108259;28;19933;-80
2022/03/26 04:33:01;;;;;;;;;;;2.40;89.10;;;;;;5109457;28;20295;-80
2022/03/26 04:35:27;;;;;;;;;;;2.30;89.40;;;;;;5108691;28;19942;-80
2022/03/26 04:37:55;;;;;;;;;;;2.40;89.30;;;;;;5108907;28;20026;-79
2022/03/26 04:40:22;;;;;;;;;;;2.40;89.30;;;;;;5103514;28;19934;-79
2022/03/26 04:42:47;;;;;;;;;;;2.30;89.00;;;;;;5104668;28;19912;-80
2022/03/26 04:45:13;;;;;;;;;;;2.30;89.30;;;;;;5103496;28;19937;-80
2022/03/26 04:47:38;;;;;;;;;;;2.30;89.40;;;;;;5084569;28;19961;-79
2022/03/26 04:50:06;;;;;;;;;;;2.30;89.70;;;;;;5103439;28;19986;-79
2022/03/26 04:52:32;;;;;;;;;;;2.30;89.30;;;;;;5103403;28;19908;-79
2022/03/26 04:54:57;;;;;;;;;;;2.30;89.20;;;;;;5104017;28;20265;-80
2022/03/26 04:57:23;;;;;;;;;;;2.30;89.10;;;;;;5104230;28;20141;-79
2022/03/26 04:59:48;;;;;;;;;;;3.30;89.60;;;;;;5103809;28;19912;-80
2022/03/26 05:02:14;;;;;;;;;;;2.30;89.40;;;;;;5103821;28;20452;-80
2022/03/26 05:04:40;;;;;;;;;;;2.30;89.50;;;;;;5103570;28;19920;-80
2022/03/26 05:07:45;;;;;;;;;;;2.30;89.20;;;;;;5104099;28;19915;-80
2022/03/26 05:09:51;;;;;;;;;;;2.30;89.30;;;;;;5103890;28;20184;-80
2022/03/26 05:12:17;;;;;;;;;;;2.30;89.80;;;;;;5104113;28;20348;-80
2022/03/26 05:14:43;;;;;;;;;;;3.00;89.80;;;;;;5104372;28;20050;-80
2022/03/26 05:17:09;;;;;;;;;;;2.30;89.20;;;;;;5085562;28;20089;-79
2022/03/26 05:19:35;;;;;;;;;;;2.40;89.30;;;;;;5104555;28;19908;-80
2022/03/26 05:22:00;;;;;;;;;;;2.40;89.40;;;;;;5103964;28;20437;-80
2022/03/26 05:24:26;;;;;;;;;;;2.50;89.00;;;;;;5104315;28;19980;-80
2022/03/26 05:26:51;;;;;;;;;;;2.50;89.10;;;;;;5104975;28;19908;-80
2022/03/26 05:29:17;;;;;;;;;;;2.40;89.10;;;;;;5104582;28;19907;-80
2022/03/26 05:31:43;;;;;;;;;;;2.40;89.40;;;;;;5105554;28;20339;-80
2022/03/26 05:34:09;;;;;;;;;;;2.50;89.10;;;;;;5105648;28;19919;-80
2022/03/26 05:36:34;;;;;;;;;;;2.50;89.10;;;;;;5106367;28;20409;-79
2022/03/26 05:39:00;;;;;;;;;;;2.50;89.00;;;;;;5089270;28;19918;-80
2022/03/26 05:41:26;;;;;;;;;;;2.60;88.80;;;;;;5092722;28;19912;-79
2022/03/26 05:43:52;;;;;;;;;;;2.60;88.60;;;;;;5093227;28;20086;-79
2022/03/26 05:46:17;;;;;;;;;;;2.60;88.40;;;;;;5111491;28;20196;-80
2022/03/26 05:48:43;;;;;;;;;;;2.70;88.10;;;;;;5111372;28;19964;-80
2022/03/26 05:51:09;;;;;;;;;;;3.60;88.80;;;;;;5109490;28;20575;-80
2022/03/26 05:53:35;;;;;;;;;;;2.80;88.00;;;;;;5109605;28;20154;-80
2022/03/26 05:56:00;;;;;;;;;;;2.90;87.70;;;;;;5085283;28;19908;-80
2022/03/26 05:58:26;;;;;;;;;;;2.90;87.50;;;;;;5103627;28;20290;-81
2022/03/26 06:00:51;;;;;;;;;;;3.00;87.30;;;;;;5101826;28;19924;-80
2022/03/26 06:03:18;;;;;;;;;;;3.10;87.00;;;;;;5083642;28;20290;-79
2022/03/26 06:05:44;;;;;;;;;;;3.10;86.40;;;;;;5101971;28;19920;-80
2022/03/26 06:08:10;;;;;;;;;;;3.20;86.40;;;;;;5083453;28;19918;-80
2022/03/26 06:10:35;;;;;;;;;;;4.60;87.00;;;;;;5102468;28;19928;-80
2022/03/26 06:13:01;;;;;;;;;;;3.40;85.80;;;;;;5102696;28;19907;-80
2022/03/26 06:15:26;;;;;;;;;;;3.50;85.40;;;;;;5105188;28;19912;-79
2022/03/26 06:17:52;;;;;;;;;;;3.60;85.00;;;;;;5108818;28;20153;-80
2022/03/26 06:20:18;;;;;;;;;;;3.70;84.60;;;;;;5111469;28;19958;-79
2022/03/26 06:22:44;;;;;;;;;;;3.90;84.40;;;;;;5112178;28;20024;-80
2022/03/26 06:25:09;;;;;;;;;;;4.00;83.80;;;;;;5105950;28;20413;-79
2022/03/26 06:27:35;;;;;;;;;;;4.10;83.30;;;;;;5104963;28;19917;-79
2022/03/26 06:30:00;;;;;;;;;;;4.20;82.70;;;;;;5103697;28;19908;-79
2022/03/26 06:32:26;;;;;;;;;;;4.30;82.50;;;;;;5104495;28;19915;-81
2022/03/26 06:34:52;;;;;;;;;;;4.30;81.80;;;;;;5104779;28;19919;-81
2022/03/26 06:37:19;;;;;;;;;;;4.40;81.70;;;;;;5102429;28;19943;-80
2022/03/26 06:39:45;;;;;;;;;;;4.50;80.70;;;;;;5103016;28;20252;-80
2022/03/26 06:42:10;;;;;;;;;;;4.70;80.40;;;;;;5103789;28;19908;-80
2022/03/26 06:44:36;;;;;;;;;;;4.80;80.00;;;;;;5103445;28;19930;-79
2022/03/26 06:47:02;;;;;;;;;;;5.00;79.50;;;;;;5104688;28;20413;-79
2022/03/26 06:49:30;;;;;;;;;;;5.10;78.80;;;;;;5106000;28;20181;-80
2022/03/26 06:51:56;;;;;;;;;;;5.20;78.40;;;;;;5112322;28;20083;-80
2022/03/26 06:54:22;;;;;;;;;;;5.30;78.30;;;;;;5111260;28;20410;-80
2022/03/26 06:56:47;;;;;;;;;;;5.50;77.40;;;;;;5111178;28;19907;-80
2022/03/26 06:59:13;;;;;;;;;;;5.60;77.20;;;;;;5111584;28;20132;-80
2022/03/26 07:01:39;;;;;;;;;;;5.80;77.00;;;;;;5111749;28;19915;-80
2022/03/26 07:04:04;;;;;;;;;;;6.00;74.60;;;;;;5104335;28;20064;-80
2022/03/26 07:06:30;;;;;;;;;;;6.00;73.90;;;;;;5102579;28;19912;-80
2022/03/26 07:08:56;;;;;;;;;;;6.70;74.30;;;;;;5084744;28;19947;-80
2022/03/26 07:11:21;;;;;;;;;;;6.20;73.80;;;;;;5102405;28;19911;-80
2022/03/26 07:13:47;;;;;;;;;;;6.40;73.80;;;;;;5105817;28;20122;-80
2022/03/26 07:16:13;;;;;;;;;;;6.50;72.60;;;;;;5106161;28;19916;-80
2022/03/26 07:18:39;;;;;;;;;;;6.70;71.40;;;;;;5088325;28;20263;-80
2022/03/26 07:21:04;;;;;;;;;;;6.80;69.20;;;;;;5105827;28;20179;-80
2022/03/26 07:23:30;;;;;;;;;;;6.90;68.80;;;;;;5106334;28;19907;-80
2022/03/26 07:25:56;;;;;;;;;;;6.90;68.20;;;;;;5105767;28;19976;-80
2022/03/26 07:28:21;;;;;;;;;;;7.10;66.70;;;;;;5105553;28;19915;-80
2022/03/26 07:30:47;;;;;;;;;;;7.20;66.20;;;;;;5106356;28;20007;-80
2022/03/26 07:33:13;;;;;;;;;;;7.40;64.40;;;;;;5087368;28;19918;-80
2022/03/26 07:35:38;;;;;;;;;;;7.50;63.40;;;;;;5105693;28;19922;-80
2022/03/26 07:38:04;;;;;;;;;;;7.60;63.30;;;;;;5105913;28;20198;-80
2022/03/26 07:40:30;;;;;;;;;;;7.80;62.50;;;;;;5105931;28;19908;-80
2022/03/26 07:42:55;;;;;;;;;;;7.90;60.80;;;;;;5087013;28;19908;-80
2022/03/26 07:45:21;;;;;;;;;;;8.00;60.00;;;;;;5088220;28;19938;-80
2022/03/26 07:47:47;;;;;;;;;;;8.20;59.30;;;;;;5107205;28;19912;-81
2022/03/26 07:50:12;;;;;;;;;;;8.30;59.00;;;;;;5108333;28;19908;-80
2022/03/26 07:52:38;;;;;;;;;;;8.30;59.30;;;;;;5107575;28;20319;-80
2022/03/26 07:55:04;;;;;;;;;;;8.50;58.10;;;;;;5109290;28;19918;-80
2022/03/26 07:57:30;;;;;;;;;;;8.70;57.40;;;;;;5092506;28;19908;-80
2022/03/26 07:59:56;;;;;;;;;;;8.80;57.90;;;;;;5093703;28;20488;-80
2022/03/26 08:02:21;;;;;;;;;;;8.90;57.20;;;;;;5111793;28;20405;-80
2022/03/26 08:04:47;;;;;;;;;;;9.00;56.80;;;;;;5107308;28;19923;-80
2022/03/26 08:07:13;;;;;;;;;;;9.30;57.40;;;;;;5087445;28;20277;-80
2022/03/26 08:09:39;;;;;;;;;;;9.50;54.70;;;;;;5105560;28;19934;-80
2022/03/26 08:12:05;;;;;;;;;;;9.50;54.40;;;;;;5107278;28;19915;-80
2022/03/26 08:14:33;;;;;;;;;;;9.70;52.80;;;;;;5104993;28;20325;-80
2022/03/26 08:16:58;;;;;;;;;;;9.70;53.10;;;;;;5105404;28;20367;-80
2022/03/26 08:19:24;;;;;;;;;;;10.00;52.90;;;;;;5105403;28;19915;-79
2022/03/26 08:21:50;;;;;;;;;;;10.30;51.60;;;;;;5105355;28;20015;-80
2022/03/26 08:24:17;;;;;;;;;;;10.30;51.50;;;;;;5103216;28;20065;-80
2022/03/26 08:26:43;;;;;;;;;;;10.40;51.10;;;;;;5105855;28;20156;-80
2022/03/26 08:29:08;;;;;;;;;;;10.60;51.00;;;;;;5106350;28;20379;-80
2022/03/26 08:31:34;;;;;;;;;;;10.60;49.90;;;;;;5105398;28;19908;-80
2022/03/26 08:34:01;;;;;;;;;;;10.60;49.10;;;;;;5103721;28;20099;-80
2022/03/26 08:36:27;;;;;;;;;;;10.90;48.90;;;;;;5103448;28;20207;-80
2022/03/26 08:38:53;;;;;;;;;;;11.10;48.50;;;;;;5103656;28;19998;-80
2022/03/26 08:41:20;;;;;;;;;;;11.00;48.00;;;;;;5102731;28;19908;-80
2022/03/26 08:43:46;;;;;;;;;;;11.30;48.70;;;;;;5103376;28;19960;-80
2022/03/26 08:46:12;;;;;;;;;;;11.60;47.00;;;;;;5100552;28;19916;-80
2022/03/26 08:48:37;;;;;;;;;;;11.70;46.90;;;;;;5101866;28;19908;-79
2022/03/26 08:51:03;;;;;;;;;;;11.90;46.10;;;;;;5102267;28;19915;-80
2022/03/26 08:53:28;;;;;;;;;;;12.10;45.10;;;;;;5101663;28;20394;-80
2022/03/26 08:55:54;;;;;;;;;;;12.30;45.80;;;;;;5102198;28;19908;-80
2022/03/26 08:58:21;;;;;;;;;;;12.40;44.30;;;;;;5102065;28;19908;-80
2022/03/26 09:00:47;;;;;;;;;;;12.50;44.30;;;;;;5099676;28;19930;-80
2022/03/26 09:03:14;;;;;;;;;;;12.70;43.90;;;;;;5099560;28;20426;-80
2022/03/26 09:05:40;;;;;;;;;;;12.90;43.50;;;;;;5100827;28;19947;-80
2022/03/26 09:08:06;;;;;;;;;;;13.00;43.40;;;;;;5101022;28;20409;-81
2022/03/26 09:10:32;;;;;;;;;;;13.20;43.50;;;;;;5099533;28;20010;-80
2022/03/26 09:12:57;;;;;;;;;;;13.40;42.70;;;;;;5100813;28;20441;-80
2022/03/26 09:15:23;;;;;;;;;;;13.60;42.50;;;;;;5101847;28;20211;-81
2022/03/26 09:17:49;;;;;;;;;;;13.70;42.10;;;;;;5108763;28;19915;-81
2022/03/26 09:20:14;;;;;;;;;;;13.90;42.60;;;;;;5109238;28;19947;-81
2022/03/26 09:22:40;;;;;;;;;;;13.70;42.00;;;;;;5107929;28;19915;-80
2022/03/26 09:25:06;;;;;;;;;;;13.70;41.50;;;;;;5109069;28;19916;-80
2022/03/26 09:27:32;;;;;;;;;;;13.70;41.70;;;;;;5102235;28;19908;-78
2022/03/26 09:29:57;;;;;;;;;;;14.00;41.10;;;;;;5099667;28;20116;-80
2022/03/26 09:32:23;;;;;;;;;;;14.20;40.60;;;;;;5100433;28;20295;-80
2022/03/26 09:34:49;;;;;;;;;;;14.50;40.50;;;;;;5098160;28;19942;-78
2022/03/26 09:37:14;;;;;;;;;;;14.70;41.20;;;;;;5100476;28;20477;-79
2022/03/26 09:39:40;;;;;;;;;;;14.50;40.50;;;;;;5098755;28;19908;-80
2022/03/26 09:42:07;;;;;;;;;;;14.70;40.50;;;;;;5100139;28;20052;-81
2022/03/26 09:44:33;;;;;;;;;;;14.50;39.30;;;;;;5100083;28;19911;-80
2022/03/26 09:46:59;;;;;;;;;;;14.60;39.80;;;;;;5100170;28;19919;-78
2022/03/26 09:49:24;;;;;;;;;;;14.80;39.60;;;;;;5099766;28;19908;-78
2022/03/26 09:51:54;;;;;;;;;;;15.10;39.10;;;;;;5099604;28;20003;-78
2022/03/26 09:54:20;;;;;;;;;;;15.10;38.00;;;;;;5099348;28;19914;-78
2022/03/26 09:56:46;;;;;;;;;;;15.40;38.40;;;;;;5098442;28;19919;-78
2022/03/26 09:59:11;;;;;;;;;;;15.30;37.80;;;;;;5100154;28;19908;-79
2022/03/26 10:01:37;;;;;;;;;;;15.30;37.80;;;;;;5099438;28;20362;-80
2022/03/26 10:04:06;;;;;;;;;;;15.50;38.10;;;;;;5099877;28;19919;-79
2022/03/26 10:06:32;;;;;;;;;;;15.60;37.60;;;;;;5099556;28;20418;-81
2022/03/26 10:08:57;;;;;;;;;;;15.80;36.60;;;;;;5099247;28;19918;-79
2022/03/26 10:11:23;;;;;;;;;;;15.80;36.40;;;;;;5099407;28;19934;-79
2022/03/26 10:13:49;;;;;;;;;;;16.20;37.10;;;;;;5099880;28;20198;-79
2022/03/26 10:16:15;;;;;;;;;;;16.40;36.90;;;;;;5081372;28;19942;-79
2022/03/26 10:18:42;;;;;;;;;;;16.50;35.90;;;;;;5099115;28;20386;-79
2022/03/26 10:21:11;;;;;;;;;;;16.70;37.50;;;;;;5099196;28;19915;-80
2022/03/26 10:23:39;;;;;;;;;;;16.70;35.20;;;;;;5086330;28;19912;-80
2022/03/26 10:26:09;;;;;;;;;;;16.80;35.40;;;;;;5098834;28;19916;-79
2022/03/26 10:28:35;;;;;;;;;;;17.00;35.10;;;;;;5099110;28;19908;-81
2022/03/26 10:34:04;;;;;;;;;;;17.20;35.50;;;;;;5098745;28;19983;-79
2022/03/26 10:36:29;;;;;;;;;;;17.50;35.40;;;;;;5098755;28;19908;-79
2022/03/26 10:38:55;;;;;;;;;;;17.30;34.40;;;;;;5098748;28;19915;-81
2022/03/26 10:41:21;;;;;;;;;;;17.40;35.00;;;;;;5098853;28;20211;-80
2022/03/26 10:43:47;;;;;;;;;;;17.70;35.00;;;;;;5098361;28;19916;-81
2022/03/26 10:46:12;;;;;;;;;;;17.60;34.80;;;;;;5098445;28;19923;-79
2022/03/26 10:48:38;;;;;;;;;;;17.70;34.40;;;;;;5099205;28;19911;-80
2022/03/26 10:51:08;;;;;;;;;;;17.80;33.40;;;;;;5098679;28;19993;-79
2022/03/26 10:53:34;;;;;;;;;;;17.90;33.50;;;;;;5097458;28;19915;-78
2022/03/26 10:56:01;;;;;;;;;;;18.10;33.10;;;;;;5099301;28;19949;-81
2022/03/26 10:58:27;;;;;;;;;;;18.40;32.90;;;;;;5098665;28;19947;-79
2022/03/26 11:00:53;;;;;;;;;;;18.60;32.60;;;;;;5098447;28;19954;-79
2022/03/26 11:03:19;;;;;;;;;;;18.90;32.90;;;;;;5099550;28;19912;-81
2022/03/26 11:05:45;;;;;;;;;;;19.30;33.60;;;;;;5097403;28;20043;-80
2022/03/26 11:08:12;;;;;;;;;;;19.40;32.00;;;;;;5098553;28;19922;-79
2022/03/26 11:10:38;;;;;;;;;;;19.60;30.50;;;;;;5099008;28;19908;-79
2022/03/26 11:13:04;;;;;;;;;;;19.70;29.50;;;;;;5098710;28;20457;-80
2022/03/26 11:15:33;;;;;;;;;;;19.70;30.00;;;;;;5098706;28;19978;-80
2022/03/26 11:18:17;;;;;;;;;;;19.70;29.70;;;;;;5098873;28;19915;-80
2022/03/26 11:20:43;;;;;;;;;;;20.00;29.60;;;;;;5098897;28;19912;-80
2022/03/26 11:23:08;;;;;;;;;;;20.20;29.40;;;;;;5098631;28;20397;-80
2022/03/26 11:25:52;;;;;;;;;;;20.20;29.00;;;;;;5098660;28;19922;-80
2022/03/26 11:28:31;;;;;;;;;;;20.40;29.50;;;;;;5098886;28;20322;-80
2022/03/26 11:31:12;;;;;;;;;;;20.50;28.10;;;;;;5098451;28;19912;-80
2022/03/26 11:33:38;;;;;;;;;;;20.50;27.80;;;;;;5098840;28;19942;-80
2022/03/26 11:36:08;;;;;;;;;;;20.60;27.40;;;;;;5097168;28;20105;-80
2022/03/26 11:38:34;;;;;;;;;;;20.80;27.50;;;;;;5098822;28;20417;-80
2022/03/26 11:41:00;;;;;;;;;;;21.00;28.00;;;;;;5096819;28;19912;-80
2022/03/26 11:43:44;;;;;;;;;;;21.20;28.00;;;;;;5096864;28;20354;-80
2022/03/26 11:51:52;;;;;;;;;;;22.10;26.90;;;;;;5098721;28;20458;-80
2022/03/26 11:54:18;;;;;;;;;;;22.00;26.60;;;;;;5098471;28;19916;-80
2022/03/26 11:56:45;;;;;;;;;;;22.00;25.70;;;;;;5098363;28;19951;-80
2022/03/26 11:59:16;;;;;;;;;;;22.00;26.40;;;;;;5101296;28;20370;-79
2022/03/26 12:01:48;;;;;;;;;;;22.40;26.70;;;;;;5100355;28;19955;-80
2022/03/26 12:04:25;;;;;;;;;;;22.40;26.20;;;;;;5101831;28;19916;-81
2022/03/26 12:06:54;;;;;;;;;;;22.50;26.20;;;;;;5084091;28;19911;-80
2022/03/26 12:09:26;;;;;;;;;;;22.30;26.30;;;;;;5105954;28;19915;-79
2022/03/26 12:12:16;;;;;;;;;;;21.50;26.50;;;;;;5106604;28;19907;-79
2022/03/26 12:15:01;;;;;;;;;;;21.40;26.90;;;;;;5110496;28;20145;-79
2022/03/26 12:17:45;;;;;;;;;;;21.00;26.90;;;;;;5111917;28;20011;-79
2022/03/26 12:20:23;;;;;;;;;;;20.80;27.20;;;;;;5107753;28;19911;-81
2022/03/26 12:22:50;;;;;;;;;;;21.20;26.90;;;;;;5103722;28;19908;-80
2022/03/26 12:25:19;;;;;;;;;;;21.70;26.90;;;;;;5094769;28;19987;-82
2022/03/26 12:27:44;;;;;;;;;;;22.20;26.90;;;;;;5103707;28;19907;-79
2022/03/26 12:30:11;;;;;;;;;;;22.70;26.90;;;;;;5101593;28;20045;-80
2022/03/26 12:32:36;;;;;;;;;;;22.80;26.30;;;;;;5100597;28;20106;-80
2022/03/26 12:35:05;;;;;;;;;;;22.70;26.40;;;;;;5102079;28;20418;-80
2022/03/26 12:37:31;;;;;;;;;;;23.20;26.90;;;;;;5099780;28;19919;-80
2022/03/26 12:39:56;;;;;;;;;;;23.60;26.10;;;;;;5101415;28;19952;-79
2022/03/26 12:42:23;;;;;;;;;;;23.80;25.90;;;;;;5101229;28;20585;-80
2022/03/26 12:44:49;;;;;;;;;;;23.50;25.40;;;;;;5099398;28;20509;-79
2022/03/26 12:47:25;;;;;;;;;;;23.70;25.30;;;;;;5099500;28;19907;-80
2022/03/26 12:49:51;;;;;;;;;;;22.10;24.60;;;;;;5101278;28;20207;-79
2022/03/26 12:52:17;;;;;;;;;;;23.40;25.20;;;;;;5100860;28;19908;-80
2022/03/26 12:54:43;;;;;;;;;;;22.80;25.50;;;;;;5100773;28;19912;-79
2022/03/26 12:57:10;;;;;;;;;;;22.90;25.50;;;;;;5100958;28;19918;-79
2022/03/26 12:59:35;;;;;;;;;;;22.90;25.30;;;;;;5100690;28;19908;-80
2022/03/26 13:02:01;;;;;;;;;;;23.00;25.70;;;;;;5100787;28;19924;-79
2022/03/26 13:04:27;;;;;;;;;;;23.40;25.30;;;;;;5100490;28;20022;-79
2022/03/26 13:06:54;;;;;;;;;;;23.70;25.00;;;;;;5100649;28;20002;-80
2022/03/26 13:09:20;;;;;;;;;;;23.70;24.70;;;;;;5100784;28;20522;-80
2022/03/26 13:11:49;;;;;;;;;;;23.80;25.10;;;;;;5100767;28;19957;-80
2022/03/26 13:14:17;;;;;;;;;;;24.20;24.20;;;;;;5100459;28;19912;-80
2022/03/26 13:16:42;;;;;;;;;;;24.40;24.00;;;;;;5100431;28;19908;-79
2022/03/26 13:19:09;;;;;;;;;;;24.10;24.90;;;;;;5099180;28;19907;-79
2022/03/26 13:21:55;;;;;;;;;;;23.70;23.70;;;;;;5098930;28;20196;-80
2022/03/26 13:24:21;;;;;;;;;;;23.90;23.60;;;;;;5099226;28;19912;-80
2022/03/26 13:26:55;;;;;;;;;;;24.30;24.00;;;;;;5100347;28;19911;-80
2022/03/26 13:29:22;;;;;;;;;;;24.40;23.30;;;;;;5081748;28;19930;-80
2022/03/26 13:31:48;;;;;;;;;;;24.90;23.20;;;;;;5100519;28;19916;-80
2022/03/26 13:34:15;;;;;;;;;;;25.10;22.80;;;;;;5100410;28;19918;-80
2022/03/26 13:36:42;;;;;;;;;;;28.00;23.80;;;;;;5098575;28;19955;-80
2022/03/26 13:39:15;;;;;;;;;;;25.30;22.10;;;;;;5100392;28;19908;-80
2022/03/26 13:41:40;;;;;;;;;;;25.00;22.20;;;;;;5099802;28;19951;-80
2022/03/26 13:44:06;;;;;;;;;;;25.30;22.00;;;;;;5099952;28;20452;-80
2022/03/26 13:46:34;;;;;;;;;;;25.30;21.90;;;;;;5100254;28;20338;-80
2022/03/26 13:48:59;;;;;;;;;;;24.90;21.60;;;;;;5099972;28;19934;-80
2022/03/26 13:51:30;;;;;;;;;;;24.80;21.80;;;;;;5100035;28;20422;-80
2022/03/26 13:53:56;;;;;;;;;;;24.80;21.90;;;;;;5100385;28;19912;-80
2022/03/26 13:56:26;;;;;;;;;;;24.90;21.60;;;;;;5099891;28;19998;-80
2022/03/26 13:58:51;;;;;;;;;;;25.10;21.50;;;;;;5100131;28;19914;-80
2022/03/26 14:01:19;;;;;;;;;;;25.50;21.40;;;;;;5100015;28;19924;-79
2022/03/26 14:03:44;;;;;;;;;;;25.70;21.20;;;;;;5100200;28;20164;-79
2022/03/26 14:06:10;;;;;;;;;;;25.90;21.70;;;;;;5098355;28;19916;-78
2022/03/26 14:08:35;;;;;;;;;;;26.20;21.40;;;;;;5099603;28;20130;-79
2022/03/26 14:11:03;;;;;;;;;;;26.50;21.10;;;;;;5098554;28;22620;-80
2022/03/26 14:13:28;;;;;;;;;;;26.60;20.70;;;;;;5099345;28;19927;-80
2022/03/26 14:15:54;;;;;;;;;;;26.40;20.50;;;;;;5099494;28;19912;-80
2022/03/26 14:18:20;;;;;;;;;;;26.40;20.50;;;;;;5097979;28;19908;-81
2022/03/26 14:20:46;;;;;;;;;;;26.60;20.60;;;;;;5098843;28;20203;-80
2022/03/26 14:23:12;;;;;;;;;;;26.70;20.60;;;;;;5099427;28;20516;-80
2022/03/26 14:25:38;;;;;;;;;;;26.40;20.00;;;;;;5097035;28;20139;-80
2022/03/26 14:28:05;;;;;;;;;;;26.80;20.00;;;;;;5098929;28;19908;-80